Time;durP1;ratioP1;P1;durP2;ratioP2;P2;SDS_P1;SDS_P2;PMS_P1;PMS_P2;Temp;Humidity;BMP_temperature;BMP_pressure;BME280_temperature;BME280_humidity;BME280_pressure;Samples;Min_cycle;Max_cycle;Signal;HPM_P1;HPM_P2
2021/11/06 00:00:01;;;;;;;10.75;5.00;;;;;;;8.04;86.36;102732.91;4994560;28;20042;-46
2021/11/06 00:02:38;;;;;;;9.10;4.40;;;;;;;8.04;86.93;102735.63;4994042;28;20493;-50
2021/11/06 00:05:06;;;;;;;13.00;4.95;;;;;;;8.04;86.62;102732.09;4994826;28;20070;-49
2021/11/06 00:07:34;;;;;;;11.30;5.43;;;;;;;8.04;86.62;102738.34;4994526;28;20046;-52
2021/11/06 00:10:02;;;;;;;9.95;4.65;;;;;;;8.04;86.02;102732.91;4980967;28;20038;-49
2021/11/06 00:12:30;;;;;;;9.48;4.95;;;;;;;8.04;86.07;102730.19;4994142;28;20038;-49
2021/11/06 00:14:57;;;;;;;13.38;5.78;;;;;;;8.02;86.45;102729.56;4994286;28;20045;-50
2021/11/06 00:17:25;;;;;;;11.10;5.10;;;;;;;8.02;86.45;102728.72;4994442;28;20038;-50
2021/11/06 00:19:55;;;;;;;12.55;5.80;;;;;;;8.00;86.00;102728.94;4993955;28;20045;-50
2021/11/06 00:22:23;;;;;;;11.90;5.75;;;;;;;7.99;85.60;102731.88;4994565;28;20081;-49
2021/11/06 00:24:51;;;;;;;13.65;5.65;;;;;;;7.98;86.31;102722.84;4994279;28;20050;-50
2021/11/06 00:27:18;;;;;;;12.18;6.40;;;;;;;7.95;85.94;102728.72;4994394;28;20050;-49
2021/11/06 00:29:46;;;;;;;15.35;5.82;;;;;;;7.95;86.38;102728.72;4993996;28;20057;-50
2021/11/06 00:32:14;;;;;;;15.60;6.45;;;;;;;7.96;85.69;102724.97;4993630;28;20085;-50
2021/11/06 00:34:41;;;;;;;13.93;6.68;;;;;;;7.93;85.64;102716.38;4993686;28;20038;-47
2021/11/06 00:37:09;;;;;;;16.38;6.78;;;;;;;7.92;85.69;102720.97;4993813;28;20061;-49
2021/11/06 00:39:37;;;;;;;15.77;6.90;;;;;;;7.93;85.49;102725.34;4982146;28;20041;-48
2021/11/06 00:42:04;;;;;;;15.48;7.25;;;;;;;7.93;85.77;102724.53;4993539;28;20386;-52
2021/11/06 00:44:32;;;;;;;20.90;8.95;;;;;;;7.89;85.50;102713.25;4982859;28;20042;-53
2021/11/06 00:47:00;;;;;;;15.32;7.72;;;;;;;7.87;85.16;102721.59;4993659;28;20038;-50
2021/11/06 00:49:27;;;;;;;17.38;7.88;;;;;;;7.87;85.48;102720.75;4993693;28;20065;-51
2021/11/06 00:51:55;;;;;;;18.60;9.00;;;;;;;7.87;85.71;102721.59;4993884;28;20065;-54
2021/11/06 00:54:23;;;;;;;21.38;9.25;;;;;;;7.88;85.15;102722.41;4993614;28;20048;-50
2021/11/06 00:56:50;;;;;;;19.55;9.70;;;;;;;7.87;84.83;102720.75;4993538;28;20046;-50
2021/11/06 00:59:18;;;;;;;20.95;9.88;;;;;;;7.87;85.09;102726.19;4993235;28;20421;-48
2021/11/06 01:01:46;;;;;;;23.00;11.48;;;;;;;7.86;85.32;102729.91;4993586;28;20480;-49
2021/11/06 01:04:13;;;;;;;22.42;10.75;;;;;;;7.88;85.35;102727.84;4992621;28;20050;-49
2021/11/06 01:06:41;;;;;;;22.00;10.00;;;;;;;7.89;85.19;102724.09;4993510;28;20034;-48
2021/11/06 01:09:08;;;;;;;25.35;10.38;;;;;;;7.87;84.78;102726.19;4993428;28;20050;-49
2021/11/06 01:11:36;;;;;;;20.88;10.23;;;;;;;7.85;84.42;102722.84;4993184;28;20053;-47
2021/11/06 01:14:04;;;;;;;18.85;8.43;;;;;;;7.83;84.70;102725.72;4992668;28;20117;-49
2021/11/06 01:16:32;;;;;;;30.58;10.98;;;;;;;7.82;84.92;102717.81;4992043;28;20046;-49
2021/11/06 01:18:59;;;;;;;23.77;10.93;;;;;;;7.80;83.92;102725.31;4993375;28;20042;-49
2021/11/06 01:21:28;;;;;;;19.85;8.93;;;;;;;7.81;84.37;102726.97;5007885;28;20092;-48
2021/11/06 01:23:56;;;;;;;22.98;10.38;;;;;;;7.82;84.18;102731.38;4992611;28;20054;-49
2021/11/06 01:26:24;;;;;;;20.75;9.50;;;;;;;7.80;84.52;102733.47;4993281;28;20133;-48
2021/11/06 01:28:52;;;;;;;21.10;10.02;;;;;;;7.78;84.61;102733.66;4992922;28;20138;-50
2021/11/06 01:31:19;;;;;;;22.92;9.70;;;;;;;7.75;83.99;102725.09;4993165;28;20505;-47
2021/11/06 01:33:47;;;;;;;21.08;9.50;;;;;;;7.73;84.08;102724.44;4991411;28;20375;-45
2021/11/06 01:36:15;;;;;;;19.83;9.38;;;;;;;7.68;84.25;102723.19;4992702;28;20030;-48
2021/11/06 01:38:43;;;;;;;21.02;8.85;;;;;;;7.67;84.56;102726.94;4992638;28;20042;-49
2021/11/06 01:41:11;;;;;;;19.90;9.38;;;;;;;7.65;84.27;102729.00;4993514;28;20143;-55
2021/11/06 01:43:40;;;;;;;17.30;8.93;;;;;;;7.65;84.54;102729.00;4992604;28;20042;-50
2021/11/06 01:46:08;;;;;;;17.65;8.70;;;;;;;7.66;84.50;102724.41;4993266;28;20097;-46
2021/11/06 01:48:36;;;;;;;17.42;8.10;;;;;;;7.68;84.53;102722.34;4993159;28;20508;-48
2021/11/06 01:51:05;;;;;;;18.42;8.43;;;;;;;7.66;84.72;102725.25;4993776;28;20042;-48
2021/11/06 01:53:33;;;;;;;14.85;7.53;;;;;;;7.64;84.75;102719.19;4995308;28;20441;-49
2021/11/06 01:56:02;;;;;;;20.02;9.10;;;;;;;7.63;83.72;102714.81;4997944;28;20046;-51
2021/11/06 01:58:30;;;;;;;15.93;8.20;;;;;;;7.61;84.53;102710.63;4999511;28;20054;-49
2021/11/06 02:00:59;;;;;;;17.83;8.52;;;;;;;7.61;84.77;102716.88;4998442;28;20058;-52
2021/11/06 02:03:27;;;;;;;21.00;8.75;;;;;;;7.59;84.44;102708.09;5012400;28;20487;-52
2021/11/06 02:05:54;;;;;;;17.27;8.52;;;;;;;7.58;83.99;102709.16;4996976;28;20560;-50
2021/11/06 02:08:22;;;;;;;15.85;8.13;;;;;;;7.57;84.13;102710.19;4995777;28;20824;-49
2021/11/06 02:10:49;;;;;;;16.77;7.93;;;;;;;7.57;84.56;102710.19;4995710;28;20054;-48
2021/11/06 02:13:17;;;;;;;13.63;7.18;;;;;;;7.57;84.81;102709.34;4993501;28;20485;-48
2021/11/06 02:15:45;;;;;;;13.60;6.90;;;;;;;7.55;84.21;102711.41;4991186;28;20108;-46
2021/11/06 02:18:13;;;;;;;16.17;7.40;;;;;;;7.56;84.11;102711.22;4993647;28;20042;-47
2021/11/06 02:20:48;;;;;;;15.13;7.43;;;;;;;7.58;85.19;102711.88;4992664;28;20031;-47
2021/11/06 02:23:16;;;;;;;13.80;6.90;;;;;;;7.61;86.63;102703.31;4995459;28;20485;-49
2021/11/06 02:25:44;;;;;;;14.35;7.18;;;;;;;7.54;84.86;102699.72;4993884;28;20046;-48
2021/11/06 02:28:32;;;;;;;15.65;7.40;;;;;;;7.54;84.75;102694.31;4993042;28;20077;-48
2021/11/06 02:30:59;;;;;;;14.65;7.70;;;;;;;7.52;84.61;102696.38;4994186;28;20042;-52
2021/11/06 02:33:27;;;;;;;14.85;8.10;;;;;;;7.49;84.23;102694.09;4994187;28;20045;-49
2021/11/06 02:35:55;;;;;;;15.07;7.72;;;;;;;7.51;83.89;102704.75;4994381;28;20050;-51
2021/11/06 02:38:23;;;;;;;17.33;7.90;;;;;;;7.48;83.86;102700.56;4994673;28;20038;-49
2021/11/06 02:40:50;;;;;;;17.33;7.47;;;;;;;7.47;84.17;102707.84;4994514;28;20046;-51
2021/11/06 02:43:18;;;;;;;13.50;6.95;;;;;;;7.46;84.44;102708.88;4994453;28;20046;-49
2021/11/06 02:45:46;;;;;;;13.88;7.80;;;;;;;7.44;84.25;102710.13;4981643;28;20501;-48
2021/11/06 02:48:14;;;;;;;14.57;6.85;;;;;;;7.42;83.98;102712.19;4998118;28;20053;-49
2021/11/06 02:50:41;;;;;;;13.55;6.97;;;;;;;7.43;84.56;102711.13;4998045;28;20058;-49
2021/11/06 02:53:09;;;;;;;13.48;7.07;;;;;;;7.44;83.76;102710.13;4994033;28;20055;-49
2021/11/06 02:55:37;;;;;;;15.25;7.10;;;;;;;7.45;83.90;102717.22;4995138;28;20134;-46
2021/11/06 02:58:04;;;;;;;13.38;7.00;;;;;;;7.45;83.92;102719.91;4998586;28;20126;-48
2021/11/06 03:00:32;;;;;;;10.98;5.97;;;;;;;7.44;83.73;102718.25;4999501;28;20848;-48
2021/11/06 03:03:01;;;;;;;14.07;6.90;;;;;;;7.41;84.19;102711.38;4999017;28;20516;-49
2021/11/06 03:05:28;;;;;;;12.40;7.25;;;;;;;7.42;83.86;102718.44;4999158;28;20053;-50
2021/11/06 03:07:57;;;;;;;13.50;7.32;;;;;;;7.41;83.77;102714.06;4999275;28;20047;-52
2021/11/06 03:10:25;;;;;;;14.90;7.28;;;;;;;7.42;84.06;102713.03;4999320;28;20050;-52
2021/11/06 03:12:53;;;;;;;13.38;6.72;;;;;;;7.43;83.54;102713.84;4999630;28;20045;-50
2021/11/06 03:15:22;;;;;;;13.77;7.30;;;;;;;7.45;83.58;102711.78;4999043;28;20564;-48
2021/11/06 03:17:49;;;;;;;12.98;7.05;;;;;;;7.45;83.60;102719.91;4997758;28;20053;-51
2021/11/06 03:20:19;;;;;;;12.02;6.50;;;;;;;7.45;84.42;102707.19;4997747;28;20429;-52
2021/11/06 03:22:47;;;;;;;15.18;7.35;;;;;;;7.47;83.84;102712.41;4997719;28;20516;-53
2021/11/06 03:25:15;;;;;;;14.50;7.35;;;;;;;7.46;83.61;102708.06;4996163;28;20042;-53
2021/11/06 03:27:43;;;;;;;15.40;6.70;;;;;;;7.48;84.16;102716.81;4998346;28;20081;-52
2021/11/06 03:30:11;;;;;;;14.45;6.82;;;;;;;7.47;84.32;102704.28;5003343;28;20042;-47
2021/11/06 03:32:39;;;;;;;13.30;6.78;;;;;;;7.47;83.86;102701.56;5002348;28;20042;-50
2021/11/06 03:35:07;;;;;;;13.95;6.72;;;;;;;7.46;83.89;102702.63;5001944;28;20038;-50
2021/11/06 03:37:36;;;;;;;14.90;7.15;;;;;;;7.44;84.38;102704.69;4998861;28;20417;-48
2021/11/06 03:40:05;;;;;;;12.57;6.55;;;;;;;7.46;83.86;102702.63;4995643;28;20034;-48
2021/11/06 03:42:32;;;;;;;12.88;6.30;;;;;;;7.47;84.47;102690.72;4995724;28;20046;-48
2021/11/06 03:45:00;;;;;;;12.00;6.25;;;;;;;7.48;84.36;102700.56;4995434;28;20440;-49
2021/11/06 03:47:28;;;;;;;12.30;6.68;;;;;;;7.49;83.78;102696.78;4995403;28;20043;-48
2021/11/06 03:49:56;;;;;;;13.95;6.47;;;;;;;7.46;83.78;102686.34;4994855;28;20065;-49
2021/11/06 03:52:24;;;;;;;11.32;6.63;;;;;;;7.47;85.02;102688.00;4996478;28;20042;-49
2021/11/06 03:54:51;;;;;;;11.73;6.07;;;;;;;7.47;84.40;102685.31;4998192;28;20043;-50
2021/11/06 03:57:19;;;;;;;8.82;5.35;;;;;;;7.49;84.69;102690.53;4997368;28;20034;-49
2021/11/06 03:59:46;;;;;;;11.00;5.93;;;;;;;7.49;85.07;102676.97;4995300;28;20042;-49
2021/11/06 04:02:14;;;;;;;10.80;5.70;;;;;;;7.50;86.23;102676.75;4994452;28;20283;-48
2021/11/06 04:04:42;;;;;;;12.25;5.97;;;;;;;7.47;85.09;102690.72;4996016;28;20042;-46
2021/11/06 04:07:09;;;;;;;10.43;6.47;;;;;;;7.45;85.19;102690.09;4997255;28;20049;-49
2021/11/06 04:09:37;;;;;;;10.45;5.88;;;;;;;7.45;84.48;102695.50;4995971;28;20051;-49
2021/11/06 04:12:05;;;;;;;14.52;6.45;;;;;;;7.41;85.05;102692.38;4994385;28;20042;-47
2021/11/06 04:14:32;;;;;;;10.95;6.70;;;;;;;7.43;85.45;102697.59;4994459;28;20042;-49
2021/11/06 04:17:00;;;;;;;13.15;6.95;;;;;;;7.47;84.66;102702.41;4994606;28;20053;-49
2021/11/06 04:19:29;;;;;;;12.02;6.30;;;;;;;7.48;84.57;102695.13;4994368;28;20050;-47
2021/11/06 04:21:57;;;;;;;10.38;6.28;;;;;;;7.47;85.09;102696.16;4994126;28;20043;-49
2021/11/06 04:24:25;;;;;;;12.48;6.03;;;;;;;7.47;84.60;102690.72;4994159;28;20050;-49
2021/11/06 04:26:53;;;;;;;12.23;6.40;;;;;;;7.47;85.50;102693.44;5009549;28;20061;-49
2021/11/06 04:29:20;;;;;;;14.20;6.78;;;;;;;7.48;85.66;102695.13;4994376;28;20409;-50
2021/11/06 04:31:48;;;;;;;10.30;6.07;;;;;;;7.49;85.16;102685.13;4994161;28;20034;-48
2021/11/06 04:34:16;;;;;;;13.02;6.95;;;;;;;7.50;85.04;102693.03;4993777;28;20046;-49
2021/11/06 04:36:44;;;;;;;13.60;7.60;;;;;;;7.49;84.67;102696.78;4991588;28;20046;-49
2021/11/06 04:39:12;;;;;;;14.57;7.20;;;;;;;7.48;85.25;102695.13;4993670;28;20050;-49
2021/11/06 04:41:40;;;;;;;12.70;6.90;;;;;;;7.47;85.21;102688.00;4993963;28;20050;-49
2021/11/06 04:44:07;;;;;;;13.57;7.38;;;;;;;7.49;85.06;102687.81;4994433;28;20117;-47
2021/11/06 04:46:35;;;;;;;11.60;6.80;;;;;;;7.50;85.19;102687.59;4995123;28;20417;-48
2021/11/06 04:49:02;;;;;;;13.20;7.30;;;;;;;7.50;85.64;102682.19;4993992;28;20063;-49
2021/11/06 04:51:30;;;;;;;13.02;6.65;;;;;;;7.51;85.32;102681.16;4993494;28;20092;-47
2021/11/06 04:53:58;;;;;;;10.30;6.13;;;;;;;7.51;85.38;102674.91;4980408;28;20401;-49
2021/11/06 04:56:25;;;;;;;13.70;7.13;;;;;;;7.49;85.59;102677.81;4993195;28;20053;-49
2021/11/06 04:58:53;;;;;;;10.95;6.85;;;;;;;7.49;85.20;102671.56;4996478;28;20042;-49
2021/11/06 05:01:20;;;;;;;12.52;7.10;;;;;;;7.49;85.15;102675.09;4995512;28;20053;-49
2021/11/06 05:03:48;;;;;;;12.43;6.78;;;;;;;7.49;85.63;102680.53;4993009;28;20035;-48
2021/11/06 05:06:16;;;;;;;12.00;5.97;;;;;;;7.51;86.05;102681.16;4993394;28;20046;-48
2021/11/06 05:08:43;;;;;;;13.20;6.93;;;;;;;7.52;85.82;102684.69;4992659;28;20043;-49
2021/11/06 05:11:11;;;;;;;12.32;6.43;;;;;;;7.50;86.08;102687.59;4993385;28;20444;-49
2021/11/06 05:13:39;;;;;;;12.05;6.82;;;;;;;7.51;86.23;102683.03;4993305;28;20054;-47
2021/11/06 05:16:06;;;;;;;13.68;7.07;;;;;;;7.52;85.70;102677.41;4994345;28;20034;-50
2021/11/06 05:18:34;;;;;;;12.45;7.18;;;;;;;7.50;85.90;102682.19;4993362;28;20038;-48
2021/11/06 05:21:02;;;;;;;11.88;6.10;;;;;;;7.50;85.59;102687.59;4992642;28;20466;-49
2021/11/06 05:23:29;;;;;;;11.43;6.20;;;;;;;7.52;85.41;102680.09;4992848;28;20042;-49
2021/11/06 05:25:57;;;;;;;12.18;6.50;;;;;;;7.55;86.04;102687.00;4994654;28;20053;-48
2021/11/06 05:28:25;;;;;;;11.55;6.97;;;;;;;7.54;86.15;102683.47;4996142;28;20026;-48
2021/11/06 05:30:52;;;;;;;10.60;5.78;;;;;;;7.52;85.85;102690.97;4995868;28;20047;-50
2021/11/06 05:33:20;;;;;;;10.30;6.40;;;;;;;7.53;85.73;102692.66;4992512;28;20039;-49
2021/11/06 05:35:47;;;;;;;14.25;7.18;;;;;;;7.54;85.70;102696.19;4992890;28;20133;-49
2021/11/06 05:38:15;;;;;;;11.07;6.05;;;;;;;7.55;86.35;102685.16;4992409;28;20046;-46
2021/11/06 05:40:43;;;;;;;10.80;6.40;;;;;;;7.52;85.38;102685.53;4993319;28;20424;-48
2021/11/06 05:43:10;;;;;;;12.50;6.40;;;;;;;7.54;85.37;102679.91;4992575;28;20100;-50
2021/11/06 05:45:38;;;;;;;13.80;6.30;;;;;;;7.54;85.49;102685.34;4992692;28;20042;-49
2021/11/06 05:48:05;;;;;;;9.77;5.32;;;;;;;7.52;85.84;102680.09;4992399;28;20049;-49
2021/11/06 05:50:33;;;;;;;11.48;5.55;;;;;;;7.52;86.15;102671.97;4992037;28;20058;-49
2021/11/06 05:53:01;;;;;;;10.27;5.97;;;;;;;7.52;86.23;102679.28;4992807;28;20050;-49
2021/11/06 05:55:28;;;;;;;11.27;5.82;;;;;;;7.53;85.84;102678.22;4992791;28;20484;-49
2021/11/06 05:57:56;;;;;;;11.48;6.00;;;;;;;7.51;85.72;102680.31;4992846;28;20054;-49
2021/11/06 06:00:23;;;;;;;11.10;5.97;;;;;;;7.51;85.34;102678.44;4992639;28;20039;-49
2021/11/06 06:02:51;;;;;;;10.40;6.35;;;;;;;7.49;86.07;102663.41;4992411;28;20047;-49
2021/11/06 06:05:19;;;;;;;10.23;5.80;;;;;;;7.50;85.67;102674.03;4992053;28;20042;-50
2021/11/06 06:07:46;;;;;;;13.10;5.82;;;;;;;7.51;85.42;102655.91;4992666;28;20053;-49
2021/11/06 06:10:15;;;;;;;9.25;5.18;;;;;;;7.49;85.65;102656.09;4992311;28;20049;-53
2021/11/06 06:12:44;;;;;;;11.93;6.55;;;;;;;7.47;85.85;102667.16;4994247;28;20040;-50
2021/11/06 06:15:12;;;;;;;12.48;6.50;;;;;;;7.46;85.84;102664.66;4992814;28;20057;-52
2021/11/06 06:17:40;;;;;;;10.25;6.50;;;;;;;7.47;85.23;102669.03;4993035;28;20042;-52
2021/11/06 06:20:08;;;;;;;11.82;6.05;;;;;;;7.47;85.49;102667.16;4991961;28;20047;-50
2021/11/06 06:22:37;;;;;;;11.82;7.10;;;;;;;7.47;85.16;102663.59;4996207;28;20504;-49
2021/11/06 06:25:06;;;;;;;10.48;5.90;;;;;;;7.47;85.38;102672.56;4996575;28;20043;-50
2021/11/06 06:27:34;;;;;;;10.77;6.10;;;;;;;7.47;85.41;102675.28;4996735;28;20069;-48
2021/11/06 06:30:02;;;;;;;9.32;5.60;;;;;;;7.51;85.33;102680.31;4996017;28;20053;-45
2021/11/06 06:32:30;;;;;;;11.57;6.22;;;;;;;7.46;85.27;102683.66;4996108;28;20050;-49
2021/11/06 06:34:58;;;;;;;13.65;7.85;;;;;;;7.47;85.89;102682.59;4995720;28;20046;-49
2021/11/06 06:37:25;;;;;;;14.43;7.40;;;;;;;7.51;86.35;102688.47;4996354;28;20054;-48
2021/11/06 06:39:53;;;;;;;12.27;6.85;;;;;;;7.52;87.16;102690.97;4996219;28;20054;-50
2021/11/06 06:42:23;;;;;;;13.50;7.78;;;;;;;7.58;88.19;102687.44;4994446;28;20042;-49
2021/11/06 06:44:51;;;;;;;12.40;7.20;;;;;;;7.56;87.27;102696.84;4996053;28;20056;-49
2021/11/06 06:47:19;;;;;;;11.90;7.95;;;;;;;7.55;87.55;102696.00;4995965;28;20517;-50
2021/11/06 06:49:47;;;;;;;12.73;7.57;;;;;;;7.53;86.95;102698.06;4995926;28;20466;-49
2021/11/06 06:52:16;;;;;;;10.93;6.22;;;;;;;7.54;87.41;102699.72;4995304;28;20097;-49
2021/11/06 06:54:43;;;;;;;11.73;6.68;;;;;;;7.54;87.36;102691.59;4996205;28;20046;-49
2021/11/06 06:57:12;;;;;;;14.65;7.45;;;;;;;7.52;87.07;102699.09;4995685;28;20804;-49
2021/11/06 06:59:40;;;;;;;12.80;5.65;;;;;;;7.57;88.75;102701.19;4995737;28;20050;-50
2021/11/06 07:02:07;;;;;;;10.38;6.03;;;;;;;7.63;89.14;102697.69;4995025;28;20038;-49
2021/11/06 07:04:35;;;;;;;9.40;5.85;;;;;;;7.61;88.51;102697.88;4995639;28;20045;-48
2021/11/06 07:07:03;;;;;;;9.40;5.65;;;;;;;7.62;88.79;102702.25;4995447;28;20050;-49
2021/11/06 07:09:31;;;;;;;10.35;6.05;;;;;;;7.65;90.48;102701.88;4996143;28;20038;-47
2021/11/06 07:11:59;;;;;;;10.43;5.70;;;;;;;7.62;88.27;102701.44;4995838;28;20125;-48
2021/11/06 07:14:27;;;;;;;10.95;6.40;;;;;;;7.65;90.10;102698.34;4995138;28;20038;-49
2021/11/06 07:16:54;;;;;;;8.95;5.20;;;;;;;7.65;89.69;102696.44;4995025;28;20046;-49
2021/11/06 07:19:22;;;;;;;9.70;5.40;;;;;;;7.65;89.71;102691.03;4995503;28;20038;-48
2021/11/06 07:21:50;;;;;;;11.88;6.00;;;;;;;7.63;89.42;102695.81;4995269;28;20053;-51
2021/11/06 07:24:17;;;;;;;11.25;5.93;;;;;;;7.63;89.79;102693.09;4995337;28;20076;-51
2021/11/06 07:26:45;;;;;;;10.90;5.85;;;;;;;7.62;89.20;102696.84;4981853;28;20057;-51
2021/11/06 07:29:13;;;;;;;11.05;5.82;;;;;;;7.60;88.87;102698.94;4995134;28;20490;-49
2021/11/06 07:31:41;;;;;;;7.82;5.00;;;;;;;7.63;90.88;102700.41;4994306;28;20042;-49
2021/11/06 07:34:09;;;;;;;9.80;5.38;;;;;;;7.73;92.96;102702.75;4995193;28;20026;-46
2021/11/06 07:36:36;;;;;;;12.32;6.28;;;;;;;7.66;89.92;102714.41;4995336;28;20046;-48
2021/11/06 07:39:04;;;;;;;11.43;5.53;;;;;;;7.61;89.17;102700.59;4996041;28;20133;-45
2021/11/06 07:41:32;;;;;;;11.45;5.30;;;;;;;7.61;89.78;102702.47;4995248;28;20141;-48
2021/11/06 07:43:59;;;;;;;10.43;5.38;;;;;;;7.58;88.38;102700.19;4995551;28;20409;-48
2021/11/06 07:46:27;;;;;;;10.88;5.90;;;;;;;7.58;88.47;102701.00;4997665;28;20073;-47
2021/11/06 07:48:56;;;;;;;12.77;6.25;;;;;;;7.59;88.85;102702.69;4996042;28;20485;-46
2021/11/06 07:51:27;;;;;;;9.50;4.80;;;;;;;7.63;90.49;102703.94;4994342;28;20046;-47
2021/11/06 07:53:57;;;;;;;8.65;4.80;;;;;;;7.64;90.55;102699.34;4994818;28;20042;-48
2021/11/06 07:56:25;;;;;;;9.60;5.20;;;;;;;7.76;95.83;102695.03;4994821;28;20405;-47
2021/11/06 07:58:52;;;;;;;9.20;5.03;;;;;;;7.87;97.29;102699.03;4994627;28;20042;-46
2021/11/06 08:01:20;;;;;;;8.20;4.65;;;;;;;7.84;95.96;102699.44;4994018;28;20186;-49
2021/11/06 08:03:48;;;;;;;9.68;4.85;;;;;;;7.81;95.66;102695.25;4994632;28;20038;-48
2021/11/06 08:06:18;;;;;;;6.85;3.75;;;;;;;7.94;100.00;102697.19;4990801;28;20046;-47
2021/11/06 08:08:45;;;;;;;12.90;5.35;;;;;;;8.00;99.70;102701.78;4994371;28;20065;-47
2021/11/06 08:11:13;;;;;;;11.02;5.47;;;;;;;7.83;95.03;102701.31;4994637;28;20034;-46
2021/11/06 08:13:41;;;;;;;14.63;5.70;;;;;;;7.75;93.10;102703.38;4994076;28;20062;-47
2021/11/06 08:16:08;;;;;;;11.40;6.35;;;;;;;7.70;91.79;102704.00;4994299;28;20034;-48
2021/11/06 08:18:36;;;;;;;10.85;5.85;;;;;;;7.63;90.95;102709.38;4994798;28;20413;-48
2021/11/06 08:21:04;;;;;;;9.90;5.75;;;;;;;7.61;89.96;102711.44;4993459;28;20038;-47
2021/11/06 08:23:31;;;;;;;10.65;5.88;;;;;;;7.60;90.22;102698.94;4994197;28;20406;-48
2021/11/06 08:25:59;;;;;;;10.77;5.90;;;;;;;7.58;89.58;102706.44;4994261;28;20054;-45
2021/11/06 08:28:26;;;;;;;11.60;5.85;;;;;;;7.59;89.75;102701.84;4993734;28;20039;-49
2021/11/06 08:30:54;;;;;;;12.88;6.13;;;;;;;7.57;89.55;102693.91;4993933;28;20077;-47
2021/11/06 08:33:22;;;;;;;11.95;6.50;;;;;;;7.59;89.65;102691.81;4993411;28;20320;-48
2021/11/06 08:35:49;;;;;;;11.48;5.95;;;;;;;7.63;90.15;102687.69;4993840;28;20046;-47
2021/11/06 08:38:17;;;;;;;11.52;6.60;;;;;;;7.66;89.72;102687.25;4993857;28;20437;-49
2021/11/06 08:40:44;;;;;;;10.95;6.13;;;;;;;7.69;88.65;102692.28;4994310;28;20073;-47
2021/11/06 08:43:12;;;;;;;11.98;6.30;;;;;;;7.73;89.59;102681.88;4993888;28;20058;-47
2021/11/06 08:45:39;;;;;;;9.68;5.55;;;;;;;7.75;nan;102681.69;4992470;28;20039;-47
2021/11/06 08:48:08;;;;;;;11.82;6.05;;;;;;;7.77;89.01;102683.16;4993922;28;20401;-48
2021/11/06 08:50:36;;;;;;;10.32;5.40;;;;;;;7.80;88.43;102674.59;4980128;28;20062;-47
2021/11/06 08:53:04;;;;;;;11.07;5.40;;;;;;;7.82;88.93;102674.41;4993688;28;20409;-48
2021/11/06 08:55:31;;;;;;;10.35;5.88;;;;;;;7.81;88.91;102670.00;4993280;28;20050;-45
2021/11/06 08:58:00;;;;;;;14.65;5.78;;;;;;;7.79;88.38;102664.78;4993156;28;20497;-48
2021/11/06 09:00:39;;;;;;;11.48;5.65;;;;;;;7.82;88.72;102671.69;4993484;28;20505;-48
2021/11/06 09:03:13;;;;;;;9.45;5.35;;;;;;;7.84;89.05;102669.56;4993894;28;20149;-47
2021/11/06 09:05:42;;;;;;;14.57;5.60;;;;;;;7.85;88.75;102665.84;4993515;28;20088;-48
2021/11/06 09:08:29;;;;;;;10.70;6.18;;;;;;;7.84;88.53;102673.16;4993727;28;20054;-49
2021/11/06 09:11:02;;;;;;;11.20;5.00;;;;;;;7.85;88.35;102668.56;4993399;28;20409;-49
2021/11/06 09:13:30;;;;;;;10.68;5.30;;;;;;;7.85;89.09;102666.66;4993324;28;20050;-49
2021/11/06 09:16:04;;;;;;;8.90;4.97;;;;;;;7.86;nan;102670.22;4993169;28;20038;-48
2021/11/06 09:18:39;;;;;;;11.20;5.40;;;;;;;7.85;89.17;102666.66;4993325;28;20247;-47
2021/11/06 09:21:08;;;;;;;9.38;5.13;;;;;;;7.86;89.13;102660.22;4991831;28;20042;-49
2021/11/06 09:23:36;;;;;;;10.07;5.32;;;;;;;7.87;88.63;102664.59;4993330;28;20057;-49
2021/11/06 09:26:05;;;;;;;8.82;4.93;;;;;;;7.92;89.51;102663.16;4992976;28;20050;-48
2021/11/06 09:28:38;;;;;;;12.55;5.72;;;;;;;7.95;89.35;102669.00;4991816;28;20038;-47
2021/11/06 09:31:06;;;;;;;9.57;5.93;;;;;;;7.96;88.46;102665.25;4992056;28;20437;-47
2021/11/06 09:33:33;;;;;;;12.75;6.00;;;;;;;7.98;89.07;102665.03;4979345;28;20046;-47
2021/11/06 09:36:01;;;;;;;13.43;5.95;;;;;;;8.00;88.74;102668.38;4992834;28;20046;-46
2021/11/06 09:38:28;;;;;;;14.82;6.60;;;;;;;8.04;88.95;102670.47;4992398;28;20417;-47
2021/11/06 09:41:04;;;;;;;12.50;5.55;;;;;;;8.07;88.83;102683.63;4992871;28;20078;-47
2021/11/06 09:43:32;;;;;;;9.27;5.28;;;;;;;8.09;88.66;102692.41;4992301;28;20485;-47
2021/11/06 09:46:00;;;;;;;10.70;4.70;;;;;;;8.13;88.38;102686.56;4992754;28;20048;-47
2021/11/06 09:48:29;;;;;;;10.05;4.78;;;;;;;8.14;87.82;102677.41;4992584;28;20046;-47
2021/11/06 09:50:58;;;;;;;9.48;5.13;;;;;;;8.16;88.24;102681.56;4985707;28;20394;-48
2021/11/06 09:53:31;;;;;;;12.02;6.13;;;;;;;8.18;88.01;102681.34;4988616;28;20073;-46
2021/11/06 09:55:59;;;;;;;14.57;6.78;;;;;;;8.20;88.16;102679.28;4992009;28;20046;-48
2021/11/06 09:58:27;;;;;;;15.18;6.30;;;;;;;8.22;88.12;102671.75;4992204;28;20042;-48
2021/11/06 10:00:55;;;;;;;12.35;7.05;;;;;;;8.24;87.80;102666.97;5008023;28;20038;-45
2021/11/06 10:03:23;;;;;;;13.45;7.30;;;;;;;8.26;87.85;102668.44;4992779;28;20053;-48
2021/11/06 10:05:52;;;;;;;13.75;7.95;;;;;;;8.25;88.04;102669.47;4992685;28;20053;-46
2021/11/06 10:08:22;;;;;;;15.10;7.40;;;;;;;8.26;87.21;102665.72;4992070;28;20073;-47
2021/11/06 10:10:52;;;;;;;14.05;7.55;;;;;;;8.30;87.21;102666.16;4991979;28;20054;-47
2021/11/06 10:13:20;;;;;;;11.75;7.32;;;;;;;8.33;87.35;102668.44;4992581;28;20038;-48
2021/11/06 10:15:53;;;;;;;11.65;7.40;;;;;;;8.35;87.44;102671.78;4992223;28;20035;-48
2021/11/06 10:18:23;;;;;;;13.73;7.35;;;;;;;8.37;87.66;102672.41;4992030;28;20412;-47
2021/11/06 10:21:11;;;;;;;12.85;6.05;;;;;;;8.40;87.72;102671.19;4992078;28;20045;-47
2021/11/06 10:23:43;;;;;;;9.93;5.63;;;;;;;8.44;87.38;102669.72;4992093;28;20046;-48
2021/11/06 10:26:20;;;;;;;12.70;5.20;;;;;;;8.47;87.05;102672.03;4991087;28;20038;-47
2021/11/06 10:29:02;;;;;;;11.50;5.25;;;;;;;8.49;86.95;102665.34;4991807;28;20525;-44
2021/11/06 10:31:29;;;;;;;11.35;5.15;;;;;;;8.50;86.76;102656.16;4992233;28;20033;-50
2021/11/06 10:33:57;;;;;;;10.60;4.88;;;;;;;8.52;87.00;102655.94;4992579;28;20126;-46
2021/11/06 10:36:26;;;;;;;10.65;5.07;;;;;;;8.55;86.88;102652.81;4991481;28;20034;-47
2021/11/06 10:39:07;;;;;;;10.52;4.78;;;;;;;8.57;86.73;102652.59;4992145;28;20097;-48
2021/11/06 10:41:42;;;;;;;7.85;4.25;;;;;;;8.59;86.56;102650.53;4991958;28;20058;-46
2021/11/06 10:44:19;;;;;;;9.05;4.60;;;;;;;8.64;86.72;102645.28;4991879;28;20050;-47
2021/11/06 10:46:53;;;;;;;9.02;4.63;;;;;;;8.65;86.97;102649.66;4992263;28;20038;-47
2021/11/06 10:49:38;;;;;;;9.85;4.60;;;;;;;8.65;86.51;102646.94;4992010;28;20046;-48
2021/11/06 10:52:11;;;;;;;10.55;4.50;;;;;;;8.64;86.54;102635.25;4991970;28;20050;-47
2021/11/06 10:54:59;;;;;;;7.78;4.50;;;;;;;8.64;87.21;102637.13;4991596;28;20038;-46
2021/11/06 10:57:27;;;;;;;9.65;4.47;;;;;;;8.65;86.80;102626.03;4990620;28;20034;-45
2021/11/06 11:00:18;;;;;;;12.38;4.60;;;;;;;8.66;86.97;102621.44;4991827;28;20440;-49
2021/11/06 11:02:46;;;;;;;10.82;4.70;;;;;;;8.68;86.82;102622.06;4979710;28;20515;-46
2021/11/06 11:05:43;;;;;;;8.52;4.20;;;;;;;8.70;87.29;102622.69;4991863;28;20038;-47
2021/11/06 11:08:13;;;;;;;10.95;4.57;;;;;;;8.71;86.84;102614.34;4914268;29;20488;-43
2021/11/06 11:10:41;;;;;;;7.53;4.22;;;;;;;8.76;87.23;102610.16;4916071;29;20044;-48
2021/11/06 11:13:20;;;;;;;9.38;4.43;;;;;;;8.81;86.91;102613.06;4916244;29;20044;-47
2021/11/06 11:15:51;;;;;;;9.38;4.53;;;;;;;8.79;87.22;102610.56;4916065;29;20040;-46
2021/11/06 11:18:34;;;;;;;11.80;4.57;;;;;;;8.79;87.27;102610.56;4915996;29;20526;-46
2021/11/06 11:21:32;;;;;;;9.40;4.25;;;;;;;8.82;87.95;102601.97;4915559;29;20051;-47
2021/11/06 11:24:01;;;;;;;9.77;5.15;;;;;;;8.83;87.85;102602.81;4822925;29;20502;-44
2021/11/06 11:26:59;;;;;;;12.55;5.30;;;;;;;8.85;87.39;102597.97;4823108;29;20057;-49
2021/11/06 11:29:39;;;;;;;12.95;4.93;;;;;;;8.87;87.75;102588.56;4804929;29;20533;-46
2021/11/06 11:32:07;;;;;;;11.02;5.40;;;;;;;8.90;87.53;102599.03;4805332;29;20051;-48
2021/11/06 11:34:34;;;;;;;9.02;4.65;;;;;;;8.93;87.71;102585.00;4805067;29;20141;-47